createdAt,value
2022-07-29T00:00:29.898Z,1016.69
2022-07-29T00:01:01.698Z,1016.69
2022-07-29T00:01:33.747Z,1016.69
2022-07-29T00:02:05.812Z,1016.69
2022-07-29T00:02:37.835Z,1016.69
2022-07-29T00:03:09.808Z,1016.69
2022-07-29T00:03:41.765Z,1016.80
2022-07-29T00:04:14.288Z,1016.80
2022-07-29T00:04:45.703Z,1016.80
2022-07-29T00:05:17.725Z,1016.80
2022-07-29T00:05:49.706Z,1016.80
2022-07-29T00:06:21.748Z,1017.00
2022-07-29T00:06:53.717Z,1017.00
2022-07-29T00:07:25.706Z,1016.80
2022-07-29T00:07:57.710Z,1016.80
2022-07-29T00:08:29.759Z,1016.49
2022-07-29T00:09:01.783Z,1016.49
2022-07-29T00:09:33.790Z,1016.49
2022-07-29T00:10:05.819Z,1016.49
2022-07-29T00:10:37.721Z,1016.59
2022-07-29T00:11:09.766Z,1016.59
2022-07-29T00:11:42.389Z,1016.59
2022-07-29T00:12:13.880Z,1016.59
2022-07-29T00:12:45.767Z,1016.59
2022-07-29T00:13:17.736Z,1016.80
2022-07-29T00:13:51.113Z,1016.80
2022-07-29T00:14:21.761Z,1016.49
2022-07-29T00:14:53.736Z,1016.49
2022-07-29T00:15:25.753Z,1016.59
2022-07-29T00:15:57.788Z,1016.59
2022-07-29T00:16:29.877Z,1016.59
2022-07-29T00:17:01.781Z,1016.59
2022-07-29T00:17:33.743Z,1016.39
2022-07-29T00:18:05.773Z,1016.39
2022-07-29T00:18:37.774Z,1016.49
2022-07-29T00:19:09.778Z,1016.49
2022-07-29T00:19:45.456Z,1016.59
2022-07-29T00:20:13.919Z,1016.80
2022-07-29T00:20:45.823Z,1016.80
2022-07-29T00:21:17.805Z,1016.59
2022-07-29T00:21:49.816Z,1016.59
2022-07-29T00:22:21.831Z,1016.39
2022-07-29T00:22:53.794Z,1016.39
2022-07-29T00:23:25.757Z,1016.69
2022-07-29T00:23:57.786Z,1016.69
2022-07-29T00:24:29.785Z,1016.49
2022-07-29T00:25:01.765Z,1016.49
2022-07-29T00:25:33.832Z,1016.39
2022-07-29T00:26:05.799Z,1016.39
2022-07-29T00:26:37.745Z,1016.39
2022-07-29T00:27:09.766Z,1016.39
2022-07-29T00:27:41.743Z,1016.49
2022-07-29T00:28:13.887Z,1016.39
2022-07-29T00:28:45.781Z,1016.39
2022-07-29T00:29:33.664Z,1016.08
2022-07-29T00:29:49.791Z,1016.08
2022-07-29T00:30:21.816Z,1016.19
2022-07-29T00:30:53.746Z,1016.19
2022-07-29T00:31:25.815Z,1016.29
2022-07-29T00:31:57.805Z,1016.29
2022-07-29T00:32:29.807Z,1016.39
2022-07-29T00:33:01.769Z,1016.39
2022-07-29T00:33:33.805Z,1016.29
2022-07-29T00:34:05.793Z,1016.29
2022-07-29T00:34:37.797Z,1016.08
2022-07-29T00:35:09.799Z,1016.08
2022-07-29T00:35:41.833Z,1016.19
2022-07-29T00:36:13.892Z,1016.29
2022-07-29T00:36:45.807Z,1016.29
2022-07-29T00:37:17.813Z,1016.49
2022-07-29T00:37:49.791Z,1016.49
2022-07-29T00:38:21.798Z,1016.19
2022-07-29T00:38:53.838Z,1016.19
2022-07-29T00:39:25.754Z,1016.29
2022-07-29T00:39:57.799Z,1016.29
2022-07-29T00:40:29.769Z,1016.08
2022-07-29T00:41:01.817Z,1016.08
2022-07-29T00:41:33.815Z,1016.39
2022-07-29T00:42:05.825Z,1016.39
2022-07-29T00:42:37.803Z,1016.29
2022-07-29T00:43:09.814Z,1016.29
2022-07-29T00:43:41.764Z,1016.08
2022-07-29T00:44:14.186Z,1016.08
2022-07-29T00:44:45.771Z,1016.08
2022-07-29T00:45:17.805Z,1016.19
2022-07-29T00:45:49.823Z,1016.19
2022-07-29T00:46:21.856Z,1015.98
2022-07-29T00:46:53.918Z,1015.98
2022-07-29T00:47:25.771Z,1016.19
2022-07-29T00:47:58.147Z,1016.19
2022-07-29T00:48:29.830Z,1016.08
2022-07-29T00:49:01.983Z,1016.08
2022-07-29T00:49:33.835Z,1016.19
2022-07-29T00:50:05.877Z,1016.19
2022-07-29T00:50:37.842Z,1016.39
2022-07-29T00:51:09.839Z,1016.39
2022-07-29T00:51:41.835Z,1016.29
2022-07-29T00:52:17.063Z,1016.08
2022-07-29T00:52:45.826Z,1016.08
2022-07-29T00:53:17.835Z,1016.08
2022-07-29T00:53:49.822Z,1016.08
2022-07-29T00:54:21.829Z,1016.19
2022-07-29T00:54:53.863Z,1016.19
2022-07-29T00:55:25.831Z,1015.98
2022-07-29T00:55:57.846Z,1015.98
2022-07-29T00:56:29.831Z,1016.08
2022-07-29T00:57:01.809Z,1016.08
2022-07-29T00:57:33.838Z,1015.98
2022-07-29T00:58:05.842Z,1015.98
2022-07-29T00:58:37.837Z,1016.08
2022-07-29T00:59:09.844Z,1016.08
2022-07-29T00:59:41.801Z,1015.98
2022-07-29T01:00:13.955Z,1016.08
2022-07-29T01:00:45.837Z,1016.08
2022-07-29T01:01:17.891Z,1016.29
2022-07-29T01:01:49.911Z,1016.29
2022-07-29T01:02:21.896Z,1016.19
2022-07-29T01:02:53.851Z,1016.19
2022-07-29T01:03:25.840Z,1015.98
2022-07-29T01:03:57.836Z,1015.98
2022-07-29T01:04:29.797Z,1015.92
2022-07-29T01:05:01.854Z,1015.92
2022-07-29T01:05:50.857Z,1015.98
2022-07-29T01:06:05.840Z,1015.98
2022-07-29T01:06:37.798Z,1015.92
2022-07-29T01:07:09.873Z,1015.92
2022-07-29T01:07:41.802Z,1016.08
2022-07-29T01:08:13.938Z,1015.92
2022-07-29T01:08:45.803Z,1015.92
2022-07-29T01:09:17.866Z,1015.98
2022-07-29T01:09:49.853Z,1015.98
2022-07-29T01:10:21.871Z,1016.08
2022-07-29T01:10:53.828Z,1016.08
2022-07-29T01:11:25.860Z,1016.08
2022-07-29T01:11:57.795Z,1016.08
2022-07-29T01:12:29.866Z,1016.08
2022-07-29T01:13:01.892Z,1016.08
2022-07-29T01:13:33.860Z,1016.08
2022-07-29T01:14:05.865Z,1016.08
2022-07-29T01:14:37.863Z,1016.08
2022-07-29T01:15:09.877Z,1016.08
2022-07-29T01:15:41.906Z,1016.19
2022-07-29T01:16:14.736Z,1015.98
2022-07-29T01:16:45.885Z,1015.98
2022-07-29T01:17:17.849Z,1015.98
2022-07-29T01:17:53.201Z,1015.98
2022-07-29T01:18:22.232Z,1016.08
2022-07-29T01:18:53.868Z,1016.08
2022-07-29T01:19:25.866Z,1015.81
2022-07-29T01:19:57.829Z,1015.81
2022-07-29T01:20:31.626Z,1015.92
2022-07-29T01:21:01.888Z,1015.92
2022-07-29T01:21:33.876Z,1015.98
2022-07-29T01:22:05.921Z,1015.98
2022-07-29T01:22:37.937Z,1015.98
2022-07-29T01:23:09.872Z,1015.98
2022-07-29T01:23:41.868Z,1015.92
2022-07-29T01:24:14.259Z,1015.81
2022-07-29T01:24:45.866Z,1015.81
2022-07-29T01:25:17.903Z,1015.71
2022-07-29T01:25:53.265Z,1015.71
2022-07-29T01:26:22.675Z,1015.81
2022-07-29T01:26:53.883Z,1015.81
2022-07-29T01:27:25.920Z,1015.92
2022-07-29T01:27:57.837Z,1015.92
2022-07-29T01:28:29.882Z,1016.08
2022-07-29T01:29:06.705Z,1016.08
2022-07-29T01:29:39.001Z,1016.19
2022-07-29T01:30:05.944Z,1016.19
2022-07-29T01:30:37.926Z,1016.08
2022-07-29T01:31:09.968Z,1016.08
2022-07-29T01:31:49.158Z,1016.08
2022-07-29T01:32:18.059Z,1015.98
2022-07-29T01:32:45.890Z,1015.98
2022-07-29T01:33:17.874Z,1015.92
2022-07-29T01:33:49.893Z,1015.92
2022-07-29T01:34:21.868Z,1015.81
2022-07-29T01:34:53.897Z,1015.81
2022-07-29T01:35:25.900Z,1015.92
2022-07-29T01:35:57.861Z,1015.92
2022-07-29T01:36:29.920Z,1015.92
2022-07-29T01:37:01.877Z,1015.92
2022-07-29T01:37:33.912Z,1015.92
2022-07-29T01:38:05.940Z,1015.92
2022-07-29T01:38:37.905Z,1016.08
2022-07-29T01:39:09.917Z,1016.08
2022-07-29T01:39:41.904Z,1015.92
2022-07-29T01:40:13.974Z,1016.08
2022-07-29T01:40:45.913Z,1016.08
2022-07-29T01:41:17.913Z,1015.92
2022-07-29T01:41:49.953Z,1015.92
2022-07-29T01:42:21.930Z,1015.81
2022-07-29T01:42:53.956Z,1015.81
2022-07-29T01:43:25.864Z,1015.92
2022-07-29T01:43:57.923Z,1015.92
2022-07-29T01:44:29.874Z,1015.81
2022-07-29T01:45:01.939Z,1015.81
2022-07-29T01:45:33.939Z,1015.98
2022-07-29T01:46:06.021Z,1015.98
2022-07-29T01:46:37.951Z,1015.98
2022-07-29T01:47:09.955Z,1015.98
2022-07-29T01:47:41.879Z,1015.81
2022-07-29T01:48:13.978Z,1015.61
2022-07-29T01:48:45.951Z,1015.61
2022-07-29T01:49:18.022Z,1015.61
2022-07-29T01:49:49.892Z,1015.61
2022-07-29T01:50:21.950Z,1015.71
2022-07-29T01:50:53.915Z,1015.71
2022-07-29T01:51:25.960Z,1015.98
2022-07-29T01:51:57.932Z,1015.98
2022-07-29T01:52:29.952Z,1015.81
2022-07-29T01:53:01.943Z,1015.81
2022-07-29T01:53:37.690Z,1015.92
2022-07-29T01:54:05.929Z,1015.92
2022-07-29T01:54:37.930Z,1015.71
2022-07-29T01:55:10.040Z,1015.71
2022-07-29T01:55:42.156Z,1015.51
2022-07-29T01:56:14.215Z,1015.61
2022-07-29T01:56:45.946Z,1015.61
2022-07-29T01:57:17.900Z,1015.81
2022-07-29T01:57:49.960Z,1015.81
2022-07-29T01:58:21.899Z,1015.81
2022-07-29T01:58:53.892Z,1015.81
2022-07-29T01:59:25.978Z,1015.81
2022-07-29T01:59:57.946Z,1015.81
2022-07-29T02:00:30.140Z,1015.92
2022-07-29T02:01:01.978Z,1015.92
2022-07-29T02:01:34.135Z,1015.71
2022-07-29T02:02:06.123Z,1015.71
2022-07-29T02:02:37.971Z,1015.71
2022-07-29T02:03:09.908Z,1015.71
2022-07-29T02:03:41.959Z,1015.51
2022-07-29T02:04:29.550Z,1015.41
2022-07-29T02:04:45.941Z,1015.41
2022-07-29T02:05:17.961Z,1015.41
2022-07-29T02:05:49.923Z,1015.41
2022-07-29T02:06:21.948Z,1015.61
2022-07-29T02:06:53.965Z,1015.61
2022-07-29T02:07:25.910Z,1015.41
2022-07-29T02:07:57.923Z,1015.41
2022-07-29T02:08:29.964Z,1015.71
2022-07-29T02:09:01.966Z,1015.71
2022-07-29T02:09:33.919Z,1015.51
2022-07-29T02:10:05.999Z,1015.51
2022-07-29T02:10:37.924Z,1015.51
2022-07-29T02:11:09.927Z,1015.51
2022-07-29T02:11:41.964Z,1015.51
2022-07-29T02:12:14.077Z,1015.61
2022-07-29T02:12:50.787Z,1015.61
2022-07-29T02:13:17.981Z,1015.71
2022-07-29T02:13:49.983Z,1015.71
2022-07-29T02:14:21.964Z,1015.41
2022-07-29T02:14:53.962Z,1015.41
2022-07-29T02:15:26.098Z,1015.51
2022-07-29T02:15:57.967Z,1015.51
2022-07-29T02:16:30.002Z,1015.31
2022-07-29T02:17:01.990Z,1015.31
2022-07-29T02:17:33.967Z,1015.61
2022-07-29T02:18:05.964Z,1015.61
2022-07-29T02:18:37.963Z,1015.41
2022-07-29T02:19:09.969Z,1015.41
2022-07-29T02:19:41.924Z,1015.71
2022-07-29T02:20:14.026Z,1015.61
2022-07-29T02:20:45.937Z,1015.61
2022-07-29T02:21:17.935Z,1015.61
2022-07-29T02:21:49.935Z,1015.61
2022-07-29T02:22:21.949Z,1015.31
2022-07-29T02:22:53.927Z,1015.31
2022-07-29T02:23:26.005Z,1015.51
2022-07-29T02:23:57.967Z,1015.51
2022-07-29T02:24:29.973Z,1015.61
2022-07-29T02:25:02.071Z,1015.61
2022-07-29T02:25:38.027Z,1015.41
2022-07-29T02:26:06.007Z,1015.41
2022-07-29T02:26:37.926Z,1015.41
2022-07-29T02:27:09.972Z,1015.41
2022-07-29T02:27:41.971Z,1015.51
2022-07-29T02:28:14.074Z,1015.41
2022-07-29T02:28:46.024Z,1015.41
2022-07-29T02:29:18.011Z,1015.20
2022-07-29T02:29:49.986Z,1015.20
2022-07-29T02:30:22.159Z,1015.31
2022-07-29T02:30:54.047Z,1015.31
2022-07-29T02:31:26.037Z,1015.51
2022-07-29T02:31:57.980Z,1015.51
2022-07-29T02:32:29.979Z,1015.31
2022-07-29T02:33:01.995Z,1015.31
2022-07-29T02:33:33.993Z,1015.31
2022-07-29T02:34:05.981Z,1015.31
2022-07-29T02:34:38.014Z,1015.41
2022-07-29T02:35:09.943Z,1015.41
2022-07-29T02:35:41.985Z,1015.41
2022-07-29T02:36:14.083Z,1015.51
2022-07-29T02:36:46.017Z,1015.51
2022-07-29T02:37:17.996Z,1015.41
2022-07-29T02:37:49.946Z,1015.41
2022-07-29T02:38:22.029Z,1015.31
2022-07-29T02:38:53.990Z,1015.31
2022-07-29T02:39:26.026Z,1015.51
2022-07-29T02:39:57.952Z,1015.51
2022-07-29T02:40:30.039Z,1015.41
2022-07-29T02:41:02.715Z,1015.41
2022-07-29T02:41:34.004Z,1015.41
2022-07-29T02:42:06.020Z,1015.41
2022-07-29T02:42:38.029Z,1015.51
2022-07-29T02:43:10.012Z,1015.51
2022-07-29T02:43:42.031Z,1015.51
2022-07-29T02:44:14.515Z,1015.61
2022-07-29T02:44:46.037Z,1015.61
2022-07-29T02:45:18.216Z,1015.51
2022-07-29T02:45:51.812Z,1015.51
2022-07-29T02:46:28.796Z,1015.61
2022-07-29T02:46:54.215Z,1015.61
2022-07-29T02:47:26.015Z,1015.61
2022-07-29T02:47:57.965Z,1015.61
2022-07-29T02:48:30.009Z,1015.71
2022-07-29T02:49:02.070Z,1015.71
2022-07-29T02:49:33.956Z,1015.71
2022-07-29T02:50:06.005Z,1015.71
2022-07-29T02:50:38.002Z,1015.51
2022-07-29T02:51:10.003Z,1015.51
2022-07-29T02:51:44.777Z,1015.51
2022-07-29T02:52:14.138Z,1015.71
2022-07-29T02:52:45.965Z,1015.71
2022-07-29T02:53:18.013Z,1015.71
2022-07-29T02:53:49.977Z,1015.71
2022-07-29T02:54:22.046Z,1015.61
2022-07-29T02:54:54.017Z,1015.61
2022-07-29T02:55:25.985Z,1015.41
2022-07-29T02:55:58.051Z,1015.41
2022-07-29T02:56:29.995Z,1015.51
2022-07-29T02:57:02.039Z,1015.51
2022-07-29T02:57:34.065Z,1015.31
2022-07-29T02:58:06.032Z,1015.31
2022-07-29T02:58:38.039Z,1015.20
2022-07-29T02:59:09.992Z,1015.20
2022-07-29T02:59:42.023Z,1015.20
2022-07-29T03:00:14.301Z,1015.41
2022-07-29T03:00:46.034Z,1015.41
2022-07-29T03:01:21.606Z,1015.20
2022-07-29T03:01:50.199Z,1015.20
2022-07-29T03:02:21.985Z,1015.20
2022-07-29T03:02:54.017Z,1015.20
2022-07-29T03:03:26.022Z,1015.20
2022-07-29T03:03:58.034Z,1015.20
2022-07-29T03:04:30.091Z,1015.31
2022-07-29T03:05:02.046Z,1015.31
2022-07-29T03:05:34.023Z,1015.20
2022-07-29T03:06:06.019Z,1015.20
2022-07-29T03:06:38.947Z,1015.20
2022-07-29T03:07:10.075Z,1015.20
2022-07-29T03:07:41.992Z,1015.31
2022-07-29T03:08:14.132Z,1015.20
2022-07-29T03:08:46.038Z,1015.20
2022-07-29T03:09:18.038Z,1015.20
2022-07-29T03:09:50.032Z,1015.20
2022-07-29T03:10:22.029Z,1015.10
2022-07-29T03:10:53.984Z,1015.10
2022-07-29T03:11:45.984Z,1015.20
2022-07-29T03:11:58.031Z,1015.20
2022-07-29T03:12:30.150Z,1015.10
2022-07-29T03:13:02.007Z,1015.10
2022-07-29T03:13:34.047Z,1015.31
2022-07-29T03:14:06.039Z,1015.31
2022-07-29T03:14:38.035Z,1015.31
2022-07-29T03:15:10.219Z,1015.31
2022-07-29T03:15:42.046Z,1015.20
2022-07-29T03:16:14.213Z,1015.20
2022-07-29T03:16:46.014Z,1015.20
2022-07-29T03:17:18.043Z,1015.41
2022-07-29T03:17:50.090Z,1015.41
2022-07-29T03:18:22.045Z,1015.20
2022-07-29T03:18:54.044Z,1015.20
2022-07-29T03:19:26.048Z,1015.10
2022-07-29T03:19:58.052Z,1015.10
2022-07-29T03:20:29.996Z,1015.51
2022-07-29T03:21:02.066Z,1015.51
2022-07-29T03:21:34.054Z,1015.10
2022-07-29T03:22:06.053Z,1015.10
2022-07-29T03:22:38.048Z,1015.20
2022-07-29T03:23:10.052Z,1015.20
2022-07-29T03:23:42.090Z,1015.31
2022-07-29T03:24:14.521Z,1015.10
2022-07-29T03:24:46.032Z,1015.10
2022-07-29T03:25:18.052Z,1015.31
2022-07-29T03:25:50.056Z,1015.31
2022-07-29T03:26:22.006Z,1015.31
2022-07-29T03:26:54.061Z,1015.31
2022-07-29T03:27:26.056Z,1015.31
2022-07-29T03:27:58.069Z,1015.31
2022-07-29T03:28:30.070Z,1015.31
2022-07-29T03:29:02.028Z,1015.31
2022-07-29T03:29:34.553Z,1015.51
2022-07-29T03:30:06.231Z,1015.51
2022-07-29T03:30:38.071Z,1015.31
2022-07-29T03:31:10.226Z,1015.31
2022-07-29T03:31:47.385Z,1015.31
2022-07-29T03:32:14.135Z,1015.41
2022-07-29T03:32:46.072Z,1015.41
2022-07-29T03:33:18.022Z,1015.41
2022-07-29T03:33:58.160Z,1015.41
2022-07-29T03:34:23.479Z,1015.20
2022-07-29T03:34:54.036Z,1015.20
2022-07-29T03:35:26.068Z,1015.31
2022-07-29T03:35:58.072Z,1015.31
2022-07-29T03:36:30.028Z,1015.20
2022-07-29T03:37:02.097Z,1015.20
2022-07-29T03:37:34.079Z,1015.51
2022-07-29T03:38:06.035Z,1015.51
2022-07-29T03:38:38.076Z,1015.41
2022-07-29T03:39:10.041Z,1015.41
2022-07-29T03:39:42.062Z,1015.51
2022-07-29T03:40:15.483Z,1015.51
2022-07-29T03:40:46.067Z,1015.51
2022-07-29T03:41:18.049Z,1015.41
2022-07-29T03:41:50.119Z,1015.41
2022-07-29T03:42:28.905Z,1015.41
2022-07-29T03:42:54.079Z,1015.41
2022-07-29T03:43:26.126Z,1015.41
2022-07-29T03:43:58.160Z,1015.41
2022-07-29T03:44:30.175Z,1015.00
2022-07-29T03:45:02.309Z,1015.00
2022-07-29T03:45:34.128Z,1015.10
2022-07-29T03:46:06.146Z,1015.10
2022-07-29T03:46:38.250Z,1015.20
2022-07-29T03:47:10.140Z,1015.20
2022-07-29T03:47:50.008Z,1015.20
2022-07-29T03:48:14.255Z,1015.20
2022-07-29T03:48:46.180Z,1015.20
2022-07-29T03:49:18.268Z,1014.90
2022-07-29T03:49:50.121Z,1014.90
2022-07-29T03:50:22.119Z,1015.00
2022-07-29T03:50:54.086Z,1015.00
2022-07-29T03:51:34.099Z,1015.10
2022-07-29T03:51:58.078Z,1015.10
2022-07-29T03:52:30.122Z,1015.10
2022-07-29T03:53:02.092Z,1015.10
2022-07-29T03:53:34.130Z,1015.31
2022-07-29T03:54:09.815Z,1015.31
2022-07-29T03:54:38.082Z,1015.10
2022-07-29T03:55:10.130Z,1015.10
2022-07-29T03:55:42.143Z,1015.51
2022-07-29T03:56:14.239Z,1015.31
2022-07-29T03:56:46.102Z,1015.31
2022-07-29T03:57:18.136Z,1015.41
2022-07-29T03:57:50.101Z,1015.41
2022-07-29T03:58:22.142Z,1015.51
2022-07-29T03:58:54.145Z,1015.51
2022-07-29T03:59:26.101Z,1015.31
2022-07-29T03:59:58.148Z,1015.31
2022-07-29T04:00:30.460Z,1015.31
2022-07-29T04:01:02.191Z,1015.31
2022-07-29T04:01:34.186Z,1015.41
2022-07-29T04:02:06.281Z,1015.41
2022-07-29T04:02:38.153Z,1015.31
2022-07-29T04:03:10.683Z,1015.31
2022-07-29T04:03:42.127Z,1015.41
2022-07-29T04:04:14.407Z,1015.51
2022-07-29T04:04:46.146Z,1015.51
2022-07-29T04:05:18.115Z,1015.51
2022-07-29T04:05:50.146Z,1015.51
2022-07-29T04:06:22.189Z,1015.41
2022-07-29T04:06:54.160Z,1015.41
2022-07-29T04:07:26.114Z,1015.61
2022-07-29T04:07:58.114Z,1015.61
2022-07-29T04:08:30.159Z,1015.41
2022-07-29T04:09:02.167Z,1015.41
2022-07-29T04:09:34.123Z,1015.41
2022-07-29T04:10:06.123Z,1015.41
2022-07-29T04:10:38.169Z,1015.51
2022-07-29T04:11:10.172Z,1015.51
2022-07-29T04:11:59.628Z,1015.41
2022-07-29T04:12:14.234Z,1015.61
2022-07-29T04:12:46.190Z,1015.61
2022-07-29T04:13:18.161Z,1015.41
2022-07-29T04:13:50.208Z,1015.41
2022-07-29T04:14:22.116Z,1015.41
2022-07-29T04:14:54.132Z,1015.41
2022-07-29T04:15:26.386Z,1015.41
2022-07-29T04:15:58.166Z,1015.41
2022-07-29T04:16:30.216Z,1015.51
2022-07-29T04:17:02.184Z,1015.51
2022-07-29T04:17:34.210Z,1015.51
2022-07-29T04:18:06.137Z,1015.51
2022-07-29T04:18:38.167Z,1015.61
2022-07-29T04:19:10.171Z,1015.61
2022-07-29T04:19:42.114Z,1015.61
2022-07-29T04:20:14.229Z,1015.61
2022-07-29T04:20:46.112Z,1015.61
2022-07-29T04:21:18.162Z,1015.71
2022-07-29T04:21:50.200Z,1015.71
2022-07-29T04:22:22.179Z,1015.61
2022-07-29T04:22:54.181Z,1015.61
2022-07-29T04:23:26.175Z,1015.61
2022-07-29T04:23:58.145Z,1015.61
2022-07-29T04:24:30.148Z,1015.81
2022-07-29T04:25:04.275Z,1015.81
2022-07-29T04:25:34.188Z,1015.71
2022-07-29T04:26:06.220Z,1015.71
2022-07-29T04:26:38.135Z,1015.61
2022-07-29T04:27:10.195Z,1015.61
2022-07-29T04:27:42.248Z,1015.61
2022-07-29T04:28:14.235Z,1015.51
2022-07-29T04:28:46.211Z,1015.51
2022-07-29T04:29:18.214Z,1015.61
2022-07-29T04:29:56.292Z,1015.61
2022-07-29T04:30:22.384Z,1015.61
2022-07-29T04:30:54.234Z,1015.61
2022-07-29T04:31:26.241Z,1015.81
2022-07-29T04:31:58.184Z,1015.81
2022-07-29T04:32:30.204Z,1015.61
2022-07-29T04:33:02.225Z,1015.61
2022-07-29T04:33:34.231Z,1015.51
2022-07-29T04:34:06.319Z,1015.51
2022-07-29T04:34:38.187Z,1015.20
2022-07-29T04:35:10.199Z,1015.20
2022-07-29T04:35:50.509Z,1015.51
2022-07-29T04:36:28.913Z,1015.61
2022-07-29T04:36:46.204Z,1015.61
2022-07-29T04:37:18.194Z,1015.51
2022-07-29T04:37:50.166Z,1015.51
2022-07-29T04:38:22.199Z,1015.51
2022-07-29T04:38:54.166Z,1015.51
2022-07-29T04:39:27.254Z,1015.61
2022-07-29T04:39:58.251Z,1015.61
2022-07-29T04:40:30.222Z,1015.61
2022-07-29T04:41:02.181Z,1015.61
2022-07-29T04:41:34.612Z,1015.41
2022-07-29T04:42:06.224Z,1015.41
2022-07-29T04:42:45.059Z,1015.41
2022-07-29T04:43:10.249Z,1015.41
2022-07-29T04:43:42.161Z,1015.61
2022-07-29T04:44:14.696Z,1015.71
2022-07-29T04:44:46.249Z,1015.71
2022-07-29T04:45:22.547Z,1015.51
2022-07-29T04:45:50.365Z,1015.51
2022-07-29T04:46:22.252Z,1015.51
2022-07-29T04:46:54.197Z,1015.51
2022-07-29T04:47:26.226Z,1015.61
2022-07-29T04:47:58.220Z,1015.61
2022-07-29T04:48:30.243Z,1015.61
2022-07-29T04:49:02.394Z,1015.61
2022-07-29T04:49:34.301Z,1015.51
2022-07-29T04:50:06.229Z,1015.51
2022-07-29T04:50:38.264Z,1015.61
2022-07-29T04:51:10.238Z,1015.61
2022-07-29T04:51:42.190Z,1015.61
2022-07-29T04:52:14.396Z,1015.81
2022-07-29T04:52:46.236Z,1015.81
2022-07-29T04:53:18.286Z,1015.51
2022-07-29T04:53:50.239Z,1015.51
2022-07-29T04:54:22.194Z,1015.61
2022-07-29T04:54:54.241Z,1015.61
2022-07-29T04:55:26.238Z,1015.41
2022-07-29T04:55:58.245Z,1015.41
2022-07-29T04:56:30.261Z,1015.51
2022-07-29T04:57:02.274Z,1015.51
2022-07-29T04:57:34.196Z,1015.31
2022-07-29T04:58:06.205Z,1015.31
2022-07-29T04:58:38.240Z,1015.41
2022-07-29T04:59:10.282Z,1015.41
2022-07-29T04:59:42.199Z,1015.41
2022-07-29T05:00:14.482Z,1015.41
2022-07-29T05:00:46.208Z,1015.41
2022-07-29T05:01:18.277Z,1015.41
2022-07-29T05:01:50.324Z,1015.41
2022-07-29T05:02:22.318Z,1015.51
2022-07-29T05:02:54.452Z,1015.51
2022-07-29T05:03:26.261Z,1015.51
2022-07-29T05:04:00.429Z,1015.51
2022-07-29T05:04:30.270Z,1015.41
2022-07-29T05:05:02.240Z,1015.41
2022-07-29T05:05:34.210Z,1015.41
2022-07-29T05:06:06.245Z,1015.41
2022-07-29T05:06:38.300Z,1015.51
2022-07-29T05:07:10.233Z,1015.51
2022-07-29T05:07:42.261Z,1015.61
2022-07-29T05:08:14.372Z,1015.41
2022-07-29T05:08:46.274Z,1015.41
2022-07-29T05:09:18.216Z,1015.51
2022-07-29T05:09:50.292Z,1015.51
2022-07-29T05:10:22.298Z,1015.51
2022-07-29T05:10:54.242Z,1015.51
2022-07-29T05:11:30.556Z,1015.51
2022-07-29T05:11:58.285Z,1015.51
2022-07-29T05:12:30.322Z,1015.61
2022-07-29T05:13:02.286Z,1015.61
2022-07-29T05:13:46.033Z,1015.51
2022-07-29T05:14:06.227Z,1015.51
2022-07-29T05:14:38.279Z,1015.31
2022-07-29T05:15:10.447Z,1015.31
2022-07-29T05:15:42.287Z,1015.41
2022-07-29T05:16:14.734Z,1015.31
2022-07-29T05:16:46.341Z,1015.31
2022-07-29T05:17:18.276Z,1015.51
2022-07-29T05:17:50.299Z,1015.51
2022-07-29T05:18:22.248Z,1015.31
2022-07-29T05:18:54.303Z,1015.31
2022-07-29T05:19:26.283Z,1015.41
2022-07-29T05:19:58.285Z,1015.41
2022-07-29T05:20:30.258Z,1015.61
2022-07-29T05:21:02.282Z,1015.61
2022-07-29T05:21:34.287Z,1015.51
2022-07-29T05:22:06.306Z,1015.51
2022-07-29T05:22:38.342Z,1015.41
2022-07-29T05:23:10.337Z,1015.41
2022-07-29T05:23:42.337Z,1015.31
2022-07-29T05:24:14.772Z,1015.31
2022-07-29T05:24:46.250Z,1015.31
2022-07-29T05:25:18.246Z,1015.51
2022-07-29T05:25:50.295Z,1015.51
2022-07-29T05:26:22.305Z,1015.51
2022-07-29T05:26:54.315Z,1015.51
2022-07-29T05:27:26.345Z,1015.61
2022-07-29T05:27:58.297Z,1015.61
2022-07-29T05:28:30.342Z,1015.51
2022-07-29T05:29:02.304Z,1015.51
2022-07-29T05:29:44.171Z,1015.51
2022-07-29T05:30:06.498Z,1015.51
2022-07-29T05:30:38.310Z,1015.41
2022-07-29T05:31:10.342Z,1015.41
2022-07-29T05:31:42.341Z,1015.20
2022-07-29T05:32:14.412Z,1015.61
2022-07-29T05:32:46.310Z,1015.61
2022-07-29T05:33:35.323Z,1015.31
2022-07-29T05:33:50.317Z,1015.31
2022-07-29T05:34:22.285Z,1015.31
2022-07-29T05:34:54.316Z,1015.31
2022-07-29T05:35:26.300Z,1015.20
2022-07-29T05:36:00.526Z,1015.20
2022-07-29T05:36:30.323Z,1015.41
2022-07-29T05:37:02.421Z,1015.41
2022-07-29T05:37:34.313Z,1015.31
2022-07-29T05:38:06.315Z,1015.31
2022-07-29T05:38:38.263Z,1015.20
2022-07-29T05:39:10.269Z,1015.20
2022-07-29T05:39:48.581Z,1015.31
2022-07-29T05:40:14.425Z,1015.31
2022-07-29T05:40:46.316Z,1015.31
2022-07-29T05:41:18.311Z,1015.41
2022-07-29T05:41:52.114Z,1015.41
2022-07-29T05:42:22.346Z,1015.20
2022-07-29T05:42:54.323Z,1015.20
2022-07-29T05:43:26.333Z,1015.41
2022-07-29T05:43:58.324Z,1015.41
2022-07-29T05:44:30.279Z,1015.51
2022-07-29T05:45:02.615Z,1015.51
2022-07-29T05:45:34.318Z,1015.41
2022-07-29T05:46:06.372Z,1015.41
2022-07-29T05:46:38.424Z,1015.31
2022-07-29T05:47:10.327Z,1015.31
2022-07-29T05:47:42.322Z,1015.31
2022-07-29T05:48:14.423Z,1015.41
2022-07-29T05:48:46.386Z,1015.41
2022-07-29T05:49:27.051Z,1015.41
2022-07-29T05:49:51.033Z,1015.41
2022-07-29T05:50:22.383Z,1015.31
2022-07-29T05:50:54.297Z,1015.31
2022-07-29T05:51:26.336Z,1015.41
2022-07-29T05:51:58.329Z,1015.41
2022-07-29T05:52:30.412Z,1015.41
2022-07-29T05:53:02.341Z,1015.41
2022-07-29T05:53:34.330Z,1015.31
2022-07-29T05:54:06.332Z,1015.31
2022-07-29T05:54:38.304Z,1015.51
2022-07-29T05:55:10.352Z,1015.51
2022-07-29T05:55:42.386Z,1015.41
2022-07-29T05:56:14.432Z,1015.41
2022-07-29T05:56:46.341Z,1015.41
2022-07-29T05:57:18.338Z,1015.71
2022-07-29T05:57:50.347Z,1015.71
2022-07-29T05:58:22.355Z,1015.51
2022-07-29T05:58:54.303Z,1015.51
2022-07-29T05:59:30.284Z,1015.41
2022-07-29T05:59:59.036Z,1015.41
2022-07-29T06:00:30.531Z,1015.41
2022-07-29T06:01:02.414Z,1015.41
2022-07-29T06:01:34.406Z,1015.61
2022-07-29T06:02:06.523Z,1015.61
2022-07-29T06:02:38.365Z,1015.41
2022-07-29T06:03:10.352Z,1015.41
2022-07-29T06:03:42.405Z,1015.51
2022-07-29T06:04:14.757Z,1015.41
2022-07-29T06:04:46.487Z,1015.41
2022-07-29T06:05:18.341Z,1015.41
2022-07-29T06:05:50.361Z,1015.41
2022-07-29T06:06:22.377Z,1015.31
2022-07-29T06:06:54.373Z,1015.31
2022-07-29T06:07:26.376Z,1015.41
2022-07-29T06:07:58.362Z,1015.41
2022-07-29T06:08:30.370Z,1015.61
2022-07-29T06:09:12.067Z,1015.61
2022-07-29T06:09:36.150Z,1015.20
2022-07-29T06:10:06.397Z,1015.20
2022-07-29T06:10:38.360Z,1015.51
2022-07-29T06:11:10.370Z,1015.51
2022-07-29T06:11:42.362Z,1015.10
2022-07-29T06:12:14.427Z,1015.41
2022-07-29T06:12:46.369Z,1015.41
2022-07-29T06:13:18.361Z,1015.20
2022-07-29T06:13:50.368Z,1015.20
2022-07-29T06:14:22.352Z,1015.61
2022-07-29T06:14:54.443Z,1015.61
2022-07-29T06:15:26.587Z,1015.31
2022-07-29T06:15:58.458Z,1015.31
2022-07-29T06:16:30.685Z,1015.31
2022-07-29T06:17:02.411Z,1015.31
2022-07-29T06:17:34.340Z,1015.20
2022-07-29T06:18:06.418Z,1015.20
2022-07-29T06:18:38.370Z,1015.31
2022-07-29T06:19:10.376Z,1015.31
2022-07-29T06:19:42.459Z,1015.31
2022-07-29T06:20:15.293Z,1015.31
2022-07-29T06:20:46.393Z,1015.31
2022-07-29T06:21:18.388Z,1015.31
2022-07-29T06:21:50.440Z,1015.31
2022-07-29T06:22:22.481Z,1015.51
2022-07-29T06:22:54.403Z,1015.51
2022-07-29T06:23:26.442Z,1015.20
2022-07-29T06:23:58.393Z,1015.20
2022-07-29T06:24:30.406Z,1015.31
2022-07-29T06:25:02.417Z,1015.31
2022-07-29T06:25:34.405Z,1015.20
2022-07-29T06:26:06.429Z,1015.20
2022-07-29T06:26:39.954Z,1015.31
2022-07-29T06:27:10.443Z,1015.31